Time;durP1;ratioP1;P1;durP2;ratioP2;P2;SDS_P1;SDS_P2;PMS_P1;PMS_P2;Temp;Humidity;BMP_temperature;BMP_pressure;BME280_temperature;BME280_humidity;BME280_pressure;Samples;Min_cycle;Max_cycle;Signal;HPM_P1;HPM_P2
2023/11/18 00:02:18;;;;;;;0.10;0.10;;;;;;;;;;6185974;23;20654;-87
2023/11/18 00:04:44;;;;;;;0.10;0.10;;;;;;;;;;6184197;23;20075;-86
2023/11/18 00:07:09;;;;;;;0.10;0.10;;;5.10;99.90;;;;;;6184460;23;20332;-86
2023/11/18 00:09:36;;;;;;;0.10;0.10;;;;;;;;;;6179940;23;20001;-86
2023/11/18 00:12:03;;;;;;;0.10;0.10;;;;;;;;;;6184409;23;20054;-87
2023/11/18 00:14:29;;;;;;;0.10;0.10;;;;;;;;;;6182968;23;20534;-86
2023/11/18 00:16:55;;;;;;;0.10;0.10;;;5.30;99.90;;;;;;6181856;23;20044;-86
2023/11/18 00:19:20;;;;;;;0.10;0.10;;;5.30;99.90;;;;;;6184483;23;20001;-86
2023/11/18 00:21:46;;;;;;;0.10;0.10;;;5.40;99.90;;;;;;6182634;23;20447;-86
2023/11/18 00:24:14;;;;;;;0.10;0.10;;;;;;;;;;6185053;23;20013;-86
2023/11/18 00:26:40;;;;;;;0.10;0.10;;;;;;;;;;6182603;23;20135;-86
2023/11/18 00:29:06;;;;;;;0.10;0.10;;;;;;;;;;6184009;23;20036;-86
2023/11/18 00:31:32;;;;;;;0.10;0.10;;;;;;;;;;6183792;23;20001;-87
2023/11/18 00:33:58;;;;;;;0.00;0.00;;;;;;;;;;6184321;23;20012;-87
2023/11/18 00:36:24;;;;;;;0.10;0.10;;;;;;;;;;6184291;23;20080;-87
2023/11/18 00:38:49;;;;;;;0.10;0.10;;;;;;;;;;6182352;23;20067;-86
2023/11/18 00:41:17;;;;;;;0.10;0.10;;;;;;;;;;6184450;23;20008;-86
2023/11/18 00:43:43;;;;;;;0.10;0.10;;;;;;;;;;6186802;23;19998;-87
2023/11/18 00:46:09;;;;;;;0.10;0.10;;;;;;;;;;6183489;23;20400;-88
2023/11/18 00:48:35;;;;;;;0.10;0.10;;;;;;;;;;6183983;23;20032;-86
2023/11/18 00:51:01;;;;;;;0.00;0.00;;;;;;;;;;6183520;23;20109;-87
2023/11/18 00:53:27;;;;;;;0.10;0.10;;;;;;;;;;6184388;23;20012;-86
2023/11/18 00:55:53;;;;;;;0.10;0.10;;;;;;;;;;6183341;23;20013;-86
2023/11/18 00:58:20;;;;;;;0.10;0.10;;;;;;;;;;6183483;23;20001;-88
2023/11/18 01:00:45;;;;;;;0.10;0.10;;;5.50;99.90;;;;;;6183560;23;20013;-86
2023/11/18 01:03:11;;;;;;;0.10;0.10;;;;;;;;;;6183108;23;20168;-87
2023/11/18 01:05:38;;;;;;;0.10;0.10;;;;;;;;;;6183262;23;20002;-87
2023/11/18 01:08:05;;;;;;;0.10;0.10;;;;;;;;;;6182966;23;20004;-86
2023/11/18 01:10:31;;;;;;;0.10;0.10;;;5.30;99.90;;;;;;6183875;23;20503;-86
2023/11/18 01:12:57;;;;;;;0.10;0.10;;;;;;;;;;6183143;23;20009;-86
2023/11/18 01:15:24;;;;;;;0.10;0.10;;;;;;;;;;6183715;23;20009;-86
2023/11/18 01:17:50;;;;;;;0.05;0.05;;;;;;;;;;6182234;23;20009;-86
2023/11/18 01:20:21;;;;;;;0.10;0.10;;;;;;;;;;6182509;23;20009;-87
2023/11/18 01:22:48;;;;;;;0.10;0.10;;;;;;;;;;6182103;23;20009;-87
2023/11/18 01:25:17;;;;;;;0.10;0.10;;;;;;;;;;6182812;23;20005;-87
2023/11/18 01:27:46;;;;;;;0.10;0.10;;;;;;;;;;6182500;23;20005;-86
2023/11/18 01:30:13;;;;;;;0.10;0.10;;;4.50;99.90;;;;;;6183476;23;20084;-86
2023/11/18 01:32:39;;;;;;;0.10;0.10;;;4.50;99.90;;;;;;6185651;23;20056;-86
2023/11/18 01:35:08;;;;;;;0.10;0.10;;;;;;;;;;6183342;23;20015;-87
2023/11/18 01:37:34;;;;;;;0.00;0.00;;;;;;;;;;6183173;23;20096;-86
2023/11/18 01:40:04;;;;;;;0.10;0.10;;;;;;;;;;6182871;23;20031;-88
2023/11/18 01:42:31;;;;;;;0.10;0.10;;;4.50;99.90;;;;;;6183418;23;20088;-86
2023/11/18 01:44:58;;;;;;;0.00;0.00;;;;;;;;;;6183368;23;20428;-87
2023/11/18 01:47:24;;;;;;;0.05;0.05;;;;;;;;;;6181687;23;20005;-85
2023/11/18 01:49:50;;;;;;;0.00;0.00;;;;;;;;;;6182706;23;20423;-86
2023/11/18 01:52:16;;;;;;;0.10;0.10;;;;;;;;;;6182282;23;20013;-87
2023/11/18 01:54:44;;;;;;;0.05;0.05;;;;;;;;;;6183111;23;20086;-87
2023/11/18 01:57:10;;;;;;;0.10;0.10;;;;;;;;;;6183228;23;20377;-86
2023/11/18 01:59:37;;;;;;;0.10;0.10;;;;;;;;;;6182894;23;20016;-85
2023/11/18 02:02:04;;;;;;;0.10;0.10;;;4.40;99.90;;;;;;6182241;23;20001;-86
2023/11/18 02:04:30;;;;;;;0.10;0.10;;;;;;;;;;6182705;23;20008;-86
2023/11/18 02:06:56;;;;;;;0.10;0.10;;;;;;;;;;6182607;23;20092;-85
2023/11/18 02:09:28;;;;;;;0.10;0.10;;;4.40;99.90;;;;;;6184331;23;20005;-86
2023/11/18 02:12:16;;;;;;;0.10;0.10;;;4.50;99.90;;;;;;6185133;23;20009;-86
2023/11/18 02:14:43;;;;;;;0.10;0.10;;;4.60;99.90;;;;;;6184424;23;20012;-86
2023/11/18 02:17:12;;;;;;;0.10;0.10;;;4.60;99.90;;;;;;6185278;23;20009;-86
2023/11/18 02:19:39;;;;;;;0.10;0.10;;;4.60;99.90;;;;;;6184986;23;20005;-87
2023/11/18 02:22:07;;;;;;;0.10;0.10;;;4.60;99.90;;;;;;6186804;23;20058;-86
2023/11/18 02:24:36;;;;;;;0.10;0.10;;;;;;;;;;6184253;23;20013;-87
2023/11/18 02:27:05;;;;;;;0.10;0.10;;;4.70;99.90;;;;;;6184841;23;20336;-86
2023/11/18 02:29:41;;;;;;;0.10;0.10;;;4.70;99.90;;;;;;6184811;23;20011;-87
2023/11/18 02:32:08;;;;;;;0.08;0.08;;;;;;;;;;6184932;23;20824;-86
2023/11/18 02:34:38;;;;;;;0.10;0.10;;;4.60;99.90;;;;;;6185081;23;20384;-86
2023/11/18 02:37:06;;;;;;;0.10;0.10;;;4.60;99.90;;;;;;6189159;23;20369;-87
2023/11/18 02:39:38;;;;;;;0.10;0.10;;;4.60;99.90;;;;;;6185626;23;20551;-86
2023/11/18 02:42:07;;;;;;;0.10;0.10;;;4.60;99.90;;;;;;6185507;23;19997;-87
2023/11/18 02:44:36;;;;;;;0.10;0.10;;;4.60;99.90;;;;;;6185216;23;20001;-87
2023/11/18 02:47:02;;;;;;;0.10;0.10;;;;;;;;;;6185200;23;20021;-87
2023/11/18 02:49:29;;;;;;;0.10;0.10;;;4.80;99.90;;;;;;6185270;23;20309;-86
2023/11/18 02:51:55;;;;;;;0.10;0.10;;;;;;;;;;6185737;23;20001;-86
2023/11/18 02:54:22;;;;;;;0.10;0.10;;;;;;;;;;6184960;23;20002;-86
2023/11/18 02:56:47;;;;;;;0.10;0.10;;;4.70;99.90;;;;;;6185530;23;20001;-86
2023/11/18 02:59:13;;;;;;;0.00;0.00;;;;;;;;;;6184627;23;19998;-86
2023/11/18 03:01:39;;;;;;;0.10;0.10;;;4.70;99.90;;;;;;6185513;23;20012;-87
2023/11/18 03:04:06;;;;;;;0.10;0.10;;;;;;;;;;6185721;23;20001;-86
2023/11/18 03:06:32;;;;;;;0.10;0.10;;;;;;;;;;6185584;23;20024;-86
2023/11/18 03:08:58;;;;;;;0.03;0.03;;;;;;;;;;6182231;23;20005;-88
2023/11/18 03:11:24;;;;;;;0.10;0.10;;;;;;;;;;6183149;23;20012;-86
2023/11/18 03:13:50;;;;;;;0.10;0.10;;;4.90;99.90;;;;;;6183574;23;20001;-87
2023/11/18 03:16:16;;;;;;;0.10;0.10;;;4.90;99.90;;;;;;6182394;23;20356;-87
2023/11/18 03:18:43;;;;;;;0.10;0.10;;;;;;;;;;6184053;23;20017;-86
2023/11/18 03:21:12;;;;;;;0.10;0.10;;;4.90;99.90;;;;;;6184708;23;20088;-87
2023/11/18 03:23:39;;;;;;;0.10;0.10;;;4.90;99.90;;;;;;6186472;23;20433;-86
2023/11/18 03:26:05;;;;;;;0.10;0.10;;;5.00;99.90;;;;;;6187055;23;20032;-86
2023/11/18 03:28:31;;;;;;;0.10;0.10;;;;;;;;;;6187651;23;20072;-86
2023/11/18 03:30:57;;;;;;;0.10;0.10;;;;;;;;;;6186717;23;20028;-86
2023/11/18 03:33:23;;;;;;;0.10;0.10;;;;;;;;;;6187297;23;20009;-86
2023/11/18 03:35:49;;;;;;;0.10;0.10;;;;;;;;;;6187586;23;20069;-86
2023/11/18 03:38:17;;;;;;;0.10;0.10;;;;;;;;;;6188808;23;20001;-86
2023/11/18 03:40:44;;;;;;;0.10;0.10;;;5.20;99.90;;;;;;6187477;23;20029;-87
2023/11/18 03:43:11;;;;;;;0.00;0.00;;;5.30;99.90;;;;;;6187100;23;20506;-88
2023/11/18 03:45:42;;;;;;;0.00;0.00;;;5.40;99.90;;;;;;6186854;23;20001;-86
2023/11/18 03:48:08;;;;;;;0.10;0.10;;;;;;;;;;6186921;23;20008;-86
2023/11/18 03:50:34;;;;;;;0.10;0.10;;;5.50;99.90;;;;;;6186695;23;20001;-87
2023/11/18 03:53:01;;;;;;;0.10;0.10;;;;;;;;;;6186346;23;20094;-87
2023/11/18 03:55:27;;;;;;;0.10;0.10;;;5.40;99.90;;;;;;6186614;23;20005;-87
2023/11/18 03:57:53;;;;;;;0.10;0.10;;;;;;;;;;6187139;23;20096;-86
2023/11/18 04:00:19;;;;;;;0.10;0.10;;;;;;;;;;6186151;23;20001;-87
2023/11/18 04:02:46;;;;;;;0.10;0.10;;;5.40;99.90;;;;;;6185986;23;20005;-86
2023/11/18 04:05:12;;;;;;;0.10;0.10;;;;;;;;;;6186441;23;20468;-87
2023/11/18 04:07:41;;;;;;;0.00;0.00;;;5.40;99.90;;;;;;6186254;23;20005;-86
2023/11/18 04:10:10;;;;;;;0.10;0.10;;;5.40;99.90;;;;;;6186343;23;20100;-88
2023/11/18 04:12:36;;;;;;;0.10;0.10;;;;;;;;;;6183288;23;20365;-86
2023/11/18 04:15:04;;;;;;;0.00;0.00;;;;;;;;;;6183529;23;20495;-86
2023/11/18 04:17:30;;;;;;;0.10;0.10;;;;;;;;;;6183824;23;20015;-86
2023/11/18 04:19:56;;;;;;;0.10;0.10;;;5.30;99.90;;;;;;6184035;23;20016;-86
2023/11/18 04:22:22;;;;;;;0.10;0.10;;;5.30;99.90;;;;;;6182562;23;20451;-85
2023/11/18 04:24:49;;;;;;;0.10;0.10;;;;;;;;;;6185101;23;20408;-87
2023/11/18 04:27:15;;;;;;;0.10;0.10;;;;;;;;;;6182918;23;20001;-86
2023/11/18 04:29:41;;;;;;;0.10;0.10;;;;;;;;;;6183169;23;20025;-87
2023/11/18 04:32:10;;;;;;;0.05;0.05;;;;;;;;;;6182976;23;20031;-87
2023/11/18 04:34:36;;;;;;;0.10;0.10;;;;;;;;;;6183172;23;20033;-87
2023/11/18 04:37:03;;;;;;;0.10;0.10;;;5.10;99.90;;;;;;6182824;23;20428;-86
2023/11/18 04:39:32;;;;;;;0.10;0.10;;;5.00;99.90;;;;;;6183961;23;20025;-87
2023/11/18 04:41:57;;;;;;;0.10;0.10;;;;;;;;;;6183057;23;20005;-87
2023/11/18 04:44:23;;;;;;;0.10;0.10;;;;;;;;;;6183571;23;20080;-86
2023/11/18 04:46:50;;;;;;;0.10;0.10;;;;;;;;;;6182869;23;19997;-86
2023/11/18 04:49:15;;;;;;;0.00;0.00;;;;;;;;;;6189267;23;20468;-87
2023/11/18 04:51:41;;;;;;;0.10;0.10;;;;;;;;;;6191051;23;20009;-87
2023/11/18 04:54:10;;;;;;;0.10;0.10;;;4.60;99.90;;;;;;6187692;23;20071;-87
2023/11/18 04:56:37;;;;;;;0.10;0.10;;;;;;;;;;6186088;23;20037;-86
2023/11/18 04:59:04;;;;;;;0.03;0.03;;;4.50;99.90;;;;;;6183782;23;20005;-85
2023/11/18 05:01:30;;;;;;;0.10;0.10;;;;;;;;;;6186245;23;20009;-86
2023/11/18 05:03:57;;;;;;;0.10;0.10;;;;;;;;;;6188083;23;20065;-86
2023/11/18 05:06:23;;;;;;;0.10;0.10;;;;;;;;;;6185009;23;20199;-88
2023/11/18 05:08:49;;;;;;;0.10;0.10;;;;;;;;;;6185802;23;20439;-86
2023/11/18 05:11:15;;;;;;;0.10;0.10;;;;;;;;;;6184544;23;20437;-86
2023/11/18 05:13:41;;;;;;;0.10;0.10;;;4.20;99.90;;;;;;6183074;23;20020;-87
2023/11/18 05:16:07;;;;;;;0.10;0.10;;;4.10;99.90;;;;;;6182813;23;20005;-85
2023/11/18 05:18:35;;;;;;;0.10;0.10;;;;;;;;;;6180765;23;20013;-88
2023/11/18 05:21:02;;;;;;;0.10;0.10;;;3.90;99.90;;;;;;6182805;23;20009;-86
2023/11/18 05:23:31;;;;;;;0.05;0.05;;;3.90;99.90;;;;;;6182425;23;20012;-85
2023/11/18 05:28:33;;;;;;;0.10;0.10;;;;;;;;;;6184910;23;20065;-94
2023/11/18 05:31:01;;;;;;;0.10;0.10;;;;;;;;;;6185043;23;19992;-95
2023/11/18 05:33:28;;;;;;;0.10;0.10;;;;;;;;;;6184940;23;20001;-94
2023/11/18 05:35:55;;;;;;;0.10;0.10;;;;;;;;;;6185471;23;19985;-95
2023/11/18 05:38:23;;;;;;;0.10;0.10;;;;;;;;;;6160354;23;19994;-96
2023/11/18 05:40:55;;;;;;;0.10;0.10;;;;;;;;;;6184343;23;19996;-95
2023/11/18 05:43:22;;;;;;;0.10;0.10;;;;;;;;;;6184658;23;20131;-95
2023/11/18 05:48:33;;;;;;;0.10;0.10;;;;;;;;;;6185538;23;20040;-95
2023/11/18 05:50:59;;;;;;;0.10;0.10;;;;;;;;;;6184702;23;19986;-96
2023/11/18 05:53:25;;;;;;;0.10;0.10;;;;;;;;;;6184571;23;19982;-96
2023/11/18 05:55:51;;;;;;;0.10;0.10;;;;;;;;;;6184170;23;19986;-96
2023/11/18 05:58:17;;;;;;;0.10;0.10;;;;;;;;;;6184182;23;20012;-95
2023/11/18 06:00:43;;;;;;;0.10;0.10;;;;;;;;;;6184126;23;19986;-96
2023/11/18 06:03:11;;;;;;;0.10;0.10;;;;;;;;;;6183142;23;20036;-94
2023/11/18 06:05:38;;;;;;;0.10;0.10;;;;;;;;;;6184757;23;19985;-96
2023/11/18 06:08:04;;;;;;;0.10;0.10;;;;;;;;;;6184109;23;19986;-96
2023/11/18 06:10:32;;;;;;;0.10;0.10;;;;;;;;;;6184180;23;19998;-95
2023/11/18 06:12:58;;;;;;;0.10;0.10;;;;;;;;;;6184361;23;19986;-96
2023/11/18 06:15:24;;;;;;;0.10;0.10;;;;;;;;;;6184212;23;19990;-95
2023/11/18 06:17:50;;;;;;;0.08;0.08;;;;;;;;;;6184116;23;20142;-95
2023/11/18 06:20:17;;;;;;;0.08;0.08;;;;;;;;;;6183989;23;20041;-94
2023/11/18 06:22:43;;;;;;;0.10;0.10;;;;;;;;;;6184293;23;19993;-95
2023/11/18 06:25:09;;;;;;;0.10;0.10;;;;;;;;;;6184326;23;19989;-96
2023/11/18 06:27:35;;;;;;;0.10;0.10;;;;;;;;;;6184055;23;19989;-95
2023/11/18 06:30:01;;;;;;;0.03;0.03;;;;;;;;;;6183459;23;20049;-96
2023/11/18 06:32:27;;;;;;;0.10;0.10;;;;;;;;;;6183704;23;20016;-95
2023/11/18 06:34:53;;;;;;;0.08;0.08;;;;;;;;;;6184281;23;20021;-96
2023/11/18 06:37:19;;;;;;;0.10;0.10;;;;;;;;;;6184095;23;19985;-95
2023/11/18 06:39:47;;;;;;;0.10;0.10;;;;;;;;;;6184290;23;19986;-96
2023/11/18 06:42:13;;;;;;;0.10;0.10;;;;;;;;;;6183959;23;19982;-95
2023/11/18 06:44:39;;;;;;;0.10;0.10;;;;;;;;;;6184224;23;19982;-96
2023/11/18 06:47:08;;;;;;;0.10;0.10;;;;;;;;;;6183473;23;20040;-95
2023/11/18 06:49:34;;;;;;;0.10;0.10;;;;;;;;;;6183232;23;19993;-96
2023/11/18 06:52:04;;;;;;;0.10;0.10;;;;;;;;;;6183459;23;20040;-96
2023/11/18 06:54:33;;;;;;;0.10;0.10;;;;;;;;;;6185792;23;19996;-95
2023/11/18 06:56:58;;;;;;;0.10;0.10;;;;;;;;;;6186116;23;20016;-96
2023/11/18 06:59:25;;;;;;;0.10;0.10;;;;;;;;;;6186092;23;20005;-95
2023/11/18 07:01:50;;;;;;;0.10;0.10;;;;;;;;;;6185770;23;20044;-95
2023/11/18 07:04:16;;;;;;;0.10;0.10;;;;;;;;;;6185795;23;19981;-95
2023/11/18 07:06:43;;;;;;;0.00;0.00;;;;;;;;;;6186195;23;19981;-95
2023/11/18 07:09:20;;;;;;;0.10;0.10;;;;;;;;;;6186315;23;19982;-96
2023/11/18 07:11:47;;;;;;;0.10;0.10;;;;;;;;;;6186105;23;19986;-96
2023/11/18 07:14:14;;;;;;;0.10;0.10;;;;;;;;;;6186290;23;19986;-95
2023/11/18 07:16:40;;;;;;;0.10;0.10;;;;;;;;;;6186193;23;19993;-96
2023/11/18 07:19:06;;;;;;;0.10;0.10;;;;;;;;;;6186199;23;19985;-96
2023/11/18 07:21:33;;;;;;;0.10;0.10;;;;;;;;;;6185524;23;19992;-94
2023/11/18 07:24:02;;;;;;;0.10;0.10;;;;;;;;;;6161432;23;20045;-95
2023/11/18 07:26:28;;;;;;;0.10;0.10;;;;;;;;;;6185610;23;19982;-95
2023/11/18 07:28:54;;;;;;;0.10;0.10;;;;;;;;;;6185868;23;19994;-96
2023/11/18 07:31:22;;;;;;;0.10;0.10;;;3.70;99.90;;;;;;6185742;23;19998;-95
2023/11/18 07:33:50;;;;;;;0.10;0.10;;;;;;;;;;6186644;23;19996;-95
2023/11/18 07:36:19;;;;;;;0.10;0.10;;;;;;;;;;6185823;23;19989;-96
2023/11/18 07:38:47;;;;;;;0.10;0.10;;;3.90;99.90;;;;;;6186137;23;20005;-96
2023/11/18 07:41:23;;;;;;;0.10;0.10;;;;;;;;;;6185212;23;19988;-96
2023/11/18 07:43:54;;;;;;;0.10;0.10;;;;;;;;;;6186132;23;19974;-95
2023/11/18 07:46:23;;;;;;;0.10;0.10;;;;;;;;;;6185081;23;20013;-94
2023/11/18 07:48:51;;;;;;;0.05;0.05;;;4.00;99.90;;;;;;6185532;23;19986;-96
2023/11/18 07:51:18;;;;;;;0.10;0.10;;;;;;;;;;6184794;23;20017;-96
2023/11/18 07:53:44;;;;;;;0.10;0.10;;;;;;;;;;6184733;23;19986;-96
2023/11/18 07:56:12;;;;;;;0.10;0.10;;;;;;;;;;6184257;23;19985;-95
2023/11/18 07:58:39;;;;;;;0.00;0.00;;;;;;;;;;6184066;23;19993;-96
2023/11/18 08:01:07;;;;;;;0.10;0.10;;;;;;;;;;6184030;23;20125;-96
2023/11/18 08:03:33;;;;;;;0.10;0.10;;;;;;;;;;6184146;23;20075;-95
2023/11/18 08:05:59;;;;;;;0.10;0.10;;;;;;;;;;6184886;23;19986;-95
2023/11/18 08:08:25;;;;;;;0.10;0.10;;;;;;;;;;6184514;23;19992;-95
2023/11/18 10:28:05;;;;;;;0.10;0.10;;;;;;;;;;6182993;23;20072;-95
2023/11/18 20:44:28;;;;;;;0.10;0.10;;;;;;;;;;6189841;23;20069;-90
2023/11/18 20:46:54;;;;;;;0.10;0.10;;;;;;;;;;6163856;23;20013;-93
2023/11/18 20:49:20;;;;;;;0.10;0.10;;;;;;;;;;6176979;23;20343;-92
2023/11/18 20:51:46;;;;;;;0.10;0.10;;;;;;;;;;6193251;23;20005;-91
2023/11/18 20:54:12;;;;;;;0.10;0.10;;;;;;;;;;6190421;22;20009;-91
2023/11/18 20:56:38;;;;;;;0.10;0.10;;;;;;;;;;6186278;23;20005;-91
2023/11/18 20:59:03;;;;;;;0.10;0.10;;;7.40;99.90;;;;;;6183953;23;20459;-92
2023/11/18 21:01:29;;;;;;;0.10;0.10;;;;;;;;;;6183669;23;20078;-93
2023/11/18 21:03:55;;;;;;;0.10;0.10;;;;;;;;;;6185430;23;20112;-91
2023/11/18 21:06:21;;;;;;;0.10;0.10;;;;;;;;;;6184633;23;20015;-91
2023/11/18 21:08:47;;;;;;;0.10;0.10;;;;;;;;;;6185345;23;20458;-91
2023/11/18 21:11:13;;;;;;;0.10;0.10;;;;;;;;;;6183626;23;20350;-91
2023/11/18 21:13:40;;;;;;;0.10;0.10;;;;;;;;;;6184563;23;20084;-90
2023/11/18 21:16:07;;;;;;;0.10;0.10;;;7.60;99.90;;;;;;6184993;23;20215;-90
2023/11/18 21:18:33;;;;;;;0.10;0.10;;;;;;;;;;6184680;23;20068;-91
2023/11/18 21:21:01;;;;;;;0.10;0.10;;;;;;;;;;6186086;23;20028;-90
2023/11/18 21:23:26;;;;;;;0.10;0.10;;;;;;;;;;6183059;23;20012;-91
2023/11/18 21:25:52;;;;;;;0.10;0.10;;;;;;;;;;6184716;23;20332;-92
2023/11/18 21:28:19;;;;;;;0.10;0.10;;;;;;;;;;6183584;23;20080;-90
2023/11/18 21:30:46;;;;;;;0.10;0.10;;;;;;;;;;6183898;23;20004;-91
2023/11/18 21:33:12;;;;;;;0.10;0.10;;;;;;;;;;6185627;23;20029;-91
2023/11/18 21:35:39;;;;;;;0.10;0.10;;;;;;;;;;6183560;23;20438;-90
2023/11/18 21:38:05;;;;;;;0.00;0.00;;;;;;;;;;6185255;23;20009;-91
2023/11/18 21:40:32;;;;;;;0.00;0.00;;;;;;;;;;6186832;23;20033;-92
2023/11/18 21:42:58;;;;;;;0.10;0.10;;;;;;;;;;6187163;23;20020;-90
2023/11/18 21:45:24;;;;;;;0.10;0.10;;;;;;;;;;6183777;23;20398;-89
2023/11/18 21:47:50;;;;;;;0.10;0.10;;;7.60;99.90;;;;;;6187043;23;20008;-91
2023/11/18 21:50:16;;;;;;;0.10;0.10;;;;;;;;;;6186102;23;20058;-90
2023/11/18 21:52:46;;;;;;;0.00;0.00;;;;;;;;;;6187515;23;20036;-91
2023/11/18 21:55:13;;;;;;;0.10;0.10;;;;;;;;;;6188091;23;20013;-91
2023/11/18 21:57:39;;;;;;;0.10;0.10;;;;;;;;;;6187843;23;20036;-91
2023/11/18 22:00:11;;;;;;;0.10;0.10;;;7.90;99.90;;;;;;6188177;23;20011;-91
2023/11/18 22:02:38;;;;;;;0.10;0.10;;;;;;;;;;6189980;23;20357;-90
2023/11/18 22:05:04;;;;;;;0.10;0.10;;;;;;;;;;6191333;23;20056;-90
2023/11/18 22:07:31;;;;;;;0.10;0.10;;;;;;;;;;6189705;23;20001;-90
2023/11/18 22:09:57;;;;;;;0.10;0.10;;;;;;;;;;6187464;23;20500;-91
2023/11/18 22:12:23;;;;;;;0.10;0.10;;;;;;;;;;6191073;23;20005;-90
2023/11/18 22:14:49;;;;;;;0.10;0.10;;;;;;;;;;6189198;23;20028;-89
2023/11/18 22:17:15;;;;;;;0.10;0.10;;;;;;;;;;6190409;23;20016;-92
2023/11/18 22:19:44;;;;;;;0.10;0.10;;;;;;;;;;6191213;23;20504;-89
2023/11/18 22:22:12;;;;;;;0.10;0.10;;;;;;;;;;6192504;23;20430;-90
2023/11/18 22:24:38;;;;;;;0.10;0.10;;;;;;;;;;6191496;23;20009;-90
2023/11/18 22:27:04;;;;;;;0.10;0.10;;;;;;;;;;6192419;23;20056;-89
2023/11/18 22:29:29;;;;;;;0.10;0.10;;;;;;;;;;6190893;23;20003;-88
2023/11/18 22:31:55;;;;;;;0.00;0.00;;;;;;;;;;6204614;22;20048;-90
2023/11/18 22:34:21;;;;;;;0.03;0.03;;;;;;;;;;6190871;23;20001;-92
2023/11/18 22:36:48;;;;;;;0.10;0.10;;;;;;;;;;6190723;22;20008;-92
2023/11/18 22:39:14;;;;;;;0.10;0.10;;;;;;;;;;6185688;23;20028;-91
2023/11/18 22:41:40;;;;;;;0.08;0.08;;;;;;;;;;6182071;23;20431;-90
2023/11/18 22:44:07;;;;;;;0.10;0.10;;;8.50;99.90;;;;;;6181599;23;20009;-90
2023/11/18 22:46:33;;;;;;;0.00;0.00;;;;;;;;;;6182132;23;20059;-91
2023/11/18 22:48:59;;;;;;;0.10;0.10;;;;;;;;;;6182687;23;20017;-90
2023/11/18 22:51:27;;;;;;;0.10;0.10;;;;;;;;;;6180739;23;20297;-90
2023/11/18 22:53:54;;;;;;;0.10;0.10;;;;;;;;;;6182190;23;20481;-91
2023/11/18 22:56:20;;;;;;;0.00;0.00;;;;;;;;;;6181366;23;20009;-91
2023/11/18 22:58:46;;;;;;;0.10;0.10;;;;;;;;;;6180064;23;20013;-90
2023/11/18 23:01:12;;;;;;;0.10;0.10;;;8.60;99.90;;;;;;6182722;23;20013;-91
2023/11/18 23:03:38;;;;;;;0.00;0.00;;;;;;;;;;6182834;23;20009;-90
2023/11/18 23:06:05;;;;;;;0.08;0.08;;;;;;;;;;6182213;23;20112;-91
2023/11/18 23:08:31;;;;;;;0.10;0.10;;;;;;;;;;6181645;23;20354;-92
2023/11/18 23:10:58;;;;;;;0.00;0.00;;;;;;;;;;6183041;23;20092;-91
2023/11/18 23:13:24;;;;;;;0.05;0.05;;;;;;;;;;6180908;23;20458;-90
2023/11/18 23:15:55;;;;;;;0.10;0.10;;;;;;;;;;6182180;23;20083;-91
2023/11/18 23:18:23;;;;;;;0.10;0.10;;;;;;;;;;6181775;23;20001;-91
2023/11/18 23:20:48;;;;;;;0.10;0.10;;;;;;;;;;6182639;23;20005;-90
2023/11/18 23:23:14;;;;;;;0.10;0.10;;;;;;;;;;6181920;23;20009;-90
2023/11/18 23:25:40;;;;;;;0.10;0.10;;;;;;;;;;6182158;23;20005;-90
2023/11/18 23:28:07;;;;;;;0.10;0.10;;;;;;;;;;6182509;23;20446;-91
2023/11/18 23:30:34;;;;;;;0.10;0.10;;;;;;;;;;6182346;23;20005;-89
2023/11/18 23:33:00;;;;;;;0.10;0.10;;;;;;;;;;6182314;23;20092;-91
2023/11/18 23:35:27;;;;;;;0.10;0.10;;;;;;;;;;6182938;23;20328;-92
2023/11/18 23:37:54;;;;;;;0.00;0.00;;;;;;;;;;6184292;23;20008;-91
2023/11/18 23:40:20;;;;;;;0.10;0.10;;;;;;;;;;6183597;23;20463;-91
2023/11/18 23:42:47;;;;;;;0.10;0.10;;;8.90;99.90;;;;;;6184345;23;20020;-90
2023/11/18 23:45:16;;;;;;;0.10;0.10;;;;;;;;;;6185046;23;20005;-91
2023/11/18 23:47:42;;;;;;;0.10;0.10;;;9.10;99.90;;;;;;6185034;23;20001;-90
2023/11/18 23:50:09;;;;;;;0.00;0.00;;;;;;;;;;6183312;23;20039;-91
2023/11/18 23:52:35;;;;;;;0.10;0.10;;;9.00;99.90;;;;;;6184397;23;20001;-91
2023/11/18 23:55:01;;;;;;;0.10;0.10;;;;;;;;;;6183753;23;20092;-91
2023/11/18 23:57:27;;;;;;;0.10;0.10;;;;;;;;;;6183548;23;20086;-91
2023/11/18 23:59:53;;;;;;;0.10;0.10;;;;;;;;;;6183483;23;20012;-90
